createdAt,value
2019-03-13T00:02:27.557Z,5.67
2019-03-13T00:04:54.834Z,5.64
2019-03-13T00:07:21.904Z,5.57
2019-03-13T00:09:48.954Z,5.56
2019-03-13T00:12:16.039Z,5.48
2019-03-13T00:14:43.139Z,5.44
2019-03-13T00:17:10.282Z,5.41
2019-03-13T00:23:09.359Z,5.40
2019-03-13T00:29:18.053Z,5.35
2019-03-13T00:31:45.130Z,5.26
2019-03-13T00:34:12.262Z,5.22
2019-03-13T00:36:39.832Z,5.17
2019-03-13T00:39:06.885Z,5.20
2019-03-13T00:41:34.009Z,5.13
2019-03-13T00:44:01.125Z,5.14
2019-03-13T00:46:28.178Z,5.17
2019-03-13T00:48:55.220Z,5.18
2019-03-13T00:51:22.318Z,5.23
2019-03-13T00:53:49.359Z,5.21
2019-03-13T00:56:17.489Z,5.23
2019-03-13T00:58:44.636Z,5.19
2019-03-13T01:01:26.696Z,5.16
2019-03-13T01:04:16.450Z,5.17
2019-03-13T01:06:46.806Z,5.26
2019-03-13T01:09:13.865Z,5.29
2019-03-13T01:11:40.976Z,5.39
2019-03-13T01:14:08.031Z,5.48
2019-03-13T01:16:35.104Z,5.53
2019-03-13T01:19:02.205Z,5.56
2019-03-13T01:21:29.269Z,5.58
2019-03-13T01:23:56.311Z,5.58
2019-03-13T01:26:23.409Z,5.52
2019-03-13T01:28:50.529Z,5.48
2019-03-13T01:31:49.240Z,5.40
2019-03-13T01:34:41.716Z,5.39
2019-03-13T01:37:09.012Z,5.42
2019-03-13T01:39:36.065Z,5.40
2019-03-13T01:42:03.194Z,5.42
2019-03-13T01:44:30.463Z,5.42
2019-03-13T01:46:57.521Z,5.44
2019-03-13T01:49:24.578Z,5.52
2019-03-13T01:51:51.670Z,5.60
2019-03-13T01:54:18.736Z,5.61
2019-03-13T01:56:47.101Z,5.60
2019-03-13T01:59:14.223Z,5.57
2019-03-13T02:01:41.295Z,5.55
2019-03-13T02:04:08.489Z,5.54
2019-03-13T02:06:35.560Z,5.56
2019-03-13T02:09:22.115Z,5.54
2019-03-13T02:11:49.192Z,5.48
2019-03-13T02:14:16.242Z,5.42
2019-03-13T02:16:43.300Z,5.41
2019-03-13T02:19:10.378Z,5.38
2019-03-13T02:21:37.428Z,5.38
2019-03-13T02:24:04.474Z,5.44
2019-03-13T02:26:31.658Z,5.43
2019-03-13T02:28:59.921Z,5.44
2019-03-13T02:31:27.003Z,5.36
2019-03-13T02:33:54.093Z,5.34
2019-03-13T02:36:21.129Z,5.30
2019-03-13T02:38:48.188Z,5.26
2019-03-13T02:41:15.267Z,5.30
2019-03-13T02:43:42.369Z,5.27
2019-03-13T02:46:09.459Z,5.24
2019-03-13T02:48:36.547Z,5.26
2019-03-13T02:51:03.567Z,5.27
2019-03-13T02:53:30.615Z,5.24
2019-03-13T02:55:58.226Z,5.28
2019-03-13T02:58:25.265Z,5.27
2019-03-13T03:01:02.083Z,5.32
2019-03-13T03:03:31.865Z,5.33
2019-03-13T03:05:59.639Z,5.32
2019-03-13T03:08:26.833Z,5.42
2019-03-13T03:10:53.992Z,5.37
2019-03-13T03:13:20.995Z,5.43
2019-03-13T03:15:48.073Z,5.44
2019-03-13T03:18:15.158Z,5.41
2019-03-13T03:20:42.192Z,5.43
2019-03-13T03:23:09.481Z,5.46
2019-03-13T03:25:36.602Z,5.53
2019-03-13T03:28:03.684Z,5.57
2019-03-13T03:30:30.834Z,5.61
2019-03-13T03:32:57.899Z,5.63
2019-03-13T03:35:24.935Z,5.72
2019-03-13T03:37:52.170Z,5.77
2019-03-13T03:40:22.548Z,5.83
2019-03-13T03:42:48.561Z,5.92
2019-03-13T03:45:22.528Z,5.95
2019-03-13T03:47:49.602Z,5.96
2019-03-13T03:50:16.661Z,5.97
2019-03-13T03:52:44.384Z,6.04
2019-03-13T03:55:11.765Z,6.08
2019-03-13T03:57:39.061Z,6.07
2019-03-13T04:00:06.725Z,6.16
2019-03-13T04:02:33.764Z,6.13
2019-03-13T04:05:00.870Z,6.17
2019-03-13T04:07:28.006Z,6.19
2019-03-13T04:09:57.045Z,6.20
2019-03-13T04:12:24.082Z,6.13
2019-03-13T04:14:51.168Z,6.04
2019-03-13T04:17:18.241Z,6.00
2019-03-13T04:19:45.261Z,5.97
2019-03-13T04:22:12.474Z,6.02
2019-03-13T04:24:39.615Z,5.95
2019-03-13T04:27:06.639Z,5.90
2019-03-13T04:29:33.754Z,5.85
2019-03-13T04:32:01.728Z,5.77
2019-03-13T04:34:29.037Z,5.84
2019-03-13T04:36:56.082Z,5.85
2019-03-13T04:39:23.155Z,5.87
2019-03-13T04:42:10.396Z,5.88
2019-03-13T04:44:37.476Z,5.89
2019-03-13T04:47:04.517Z,5.90
2019-03-13T04:49:31.597Z,5.92
2019-03-13T04:51:58.683Z,5.95
2019-03-13T04:54:25.715Z,5.96
2019-03-13T04:56:52.781Z,6.03
2019-03-13T05:00:02.605Z,5.98
2019-03-13T05:02:29.680Z,6.07
2019-03-13T05:04:56.829Z,6.18
2019-03-13T05:07:24.003Z,6.16
2019-03-13T05:09:51.049Z,6.18
2019-03-13T05:12:18.146Z,6.23
2019-03-13T05:14:45.192Z,6.26
2019-03-13T05:17:12.231Z,6.33
2019-03-13T05:19:39.505Z,6.32
2019-03-13T05:23:01.824Z,6.34
2019-03-13T05:25:28.919Z,6.39
2019-03-13T05:27:55.966Z,6.38
2019-03-13T05:30:23.020Z,6.39
2019-03-13T05:32:50.448Z,6.39
2019-03-13T05:35:17.512Z,6.35
2019-03-13T05:37:44.566Z,6.51
2019-03-13T05:40:11.641Z,6.53
2019-03-13T05:42:56.930Z,6.50
2019-03-13T05:45:24.071Z,6.50
2019-03-13T05:47:51.195Z,6.52
2019-03-13T05:50:18.326Z,6.57
2019-03-13T05:52:45.448Z,6.60
2019-03-13T05:55:12.496Z,6.59
2019-03-13T05:57:45.552Z,6.59
2019-03-13T06:00:14.647Z,6.58
2019-03-13T06:02:41.787Z,6.60
2019-03-13T06:05:09.416Z,6.57
2019-03-13T06:07:36.476Z,6.57
2019-03-13T06:10:04.446Z,6.62
2019-03-13T06:12:32.627Z,6.57
2019-03-13T06:14:59.691Z,6.60
2019-03-13T06:17:29.022Z,6.52
2019-03-13T06:19:56.125Z,6.61
2019-03-13T06:22:23.321Z,6.58
2019-03-13T06:24:50.396Z,6.64
2019-03-13T06:27:17.616Z,6.64
2019-03-13T06:29:44.829Z,6.52
2019-03-13T06:32:31.294Z,6.48
2019-03-13T06:34:58.430Z,6.46
2019-03-13T06:37:25.488Z,6.49
2019-03-13T06:39:52.597Z,6.55
2019-03-13T06:42:19.648Z,6.51
2019-03-13T06:44:46.865Z,6.50
2019-03-13T06:47:13.990Z,6.67
2019-03-13T06:49:41.089Z,6.72
2019-03-13T06:52:08.146Z,6.74
2019-03-13T06:54:35.297Z,6.63
2019-03-13T06:57:02.409Z,6.66
2019-03-13T06:59:51.685Z,6.65
2019-03-13T07:02:24.158Z,6.58
2019-03-13T07:08:24.555Z,6.55
2019-03-13T07:10:58.091Z,6.49
2019-03-13T07:13:50.763Z,6.42
2019-03-13T07:16:43.200Z,6.28
2019-03-13T07:19:25.542Z,6.10
2019-03-13T07:22:10.673Z,6.04
2019-03-13T07:24:58.071Z,6.01
2019-03-13T07:27:50.515Z,5.94
2019-03-13T07:30:28.671Z,5.93
2019-03-13T07:33:07.984Z,5.90
2019-03-13T07:35:56.302Z,5.90
2019-03-13T07:38:42.946Z,5.91
2019-03-13T07:41:18.815Z,5.97
2019-03-13T07:44:11.387Z,6.06
2019-03-13T07:46:57.270Z,6.05
2019-03-13T07:50:21.485Z,6.09
2019-03-13T07:53:09.467Z,6.13
2019-03-13T07:55:59.127Z,6.17
2019-03-13T07:58:36.075Z,6.21
2019-03-13T08:01:13.590Z,6.26
2019-03-13T08:03:55.859Z,6.31
2019-03-13T08:06:37.718Z,6.39
2019-03-13T08:09:43.741Z,6.39
2019-03-13T08:12:45.734Z,6.45
2019-03-13T08:15:31.082Z,6.43
2019-03-13T08:18:23.797Z,6.38
2019-03-13T08:21:09.102Z,6.46
2019-03-13T08:24:01.889Z,6.50
2019-03-13T08:26:44.031Z,6.52
2019-03-13T08:29:49.059Z,6.53
2019-03-13T08:32:38.825Z,6.56
2019-03-13T08:35:22.792Z,6.52
2019-03-13T08:38:24.909Z,6.43
2019-03-13T08:41:26.557Z,6.41
2019-03-13T08:44:22.695Z,6.37
2019-03-13T08:47:01.402Z,6.32
2019-03-13T08:49:36.579Z,6.19
2019-03-13T08:52:11.856Z,6.18
2019-03-13T08:54:57.285Z,6.22
2019-03-13T08:57:42.921Z,6.21
2019-03-13T09:00:39.690Z,6.19
2019-03-13T09:03:35.286Z,6.11
2019-03-13T09:06:33.947Z,6.07
2019-03-13T09:09:29.580Z,6.06
2019-03-13T09:12:12.548Z,6.05
2019-03-13T09:14:51.110Z,6.15
2019-03-13T09:17:37.740Z,6.22
2019-03-13T09:20:25.517Z,6.27
2019-03-13T09:23:21.446Z,6.44
2019-03-13T09:26:26.407Z,6.51
2019-03-13T09:29:03.734Z,6.56
2019-03-13T09:31:49.391Z,6.60
2019-03-13T09:34:36.034Z,6.67
2019-03-13T09:37:12.133Z,6.62
2019-03-13T09:39:58.782Z,6.64
2019-03-13T09:42:57.540Z,6.73
2019-03-13T09:45:32.423Z,6.84
2019-03-13T09:48:21.925Z,6.94
2019-03-13T09:51:14.833Z,6.97
2019-03-13T09:53:57.959Z,6.95
2019-03-13T09:56:53.810Z,6.96
2019-03-13T09:59:49.571Z,7.04
2019-03-13T10:02:22.256Z,7.01
2019-03-13T10:04:59.409Z,7.00
2019-03-13T10:07:48.840Z,7.03
2019-03-13T10:10:47.509Z,6.98
2019-03-13T10:13:36.999Z,6.93
2019-03-13T10:16:26.610Z,6.83
2019-03-13T10:19:21.291Z,6.73
2019-03-13T10:22:10.851Z,6.76
2019-03-13T10:25:00.444Z,6.77
2019-03-13T10:27:53.018Z,6.87
2019-03-13T10:30:39.792Z,6.86
2019-03-13T10:33:16.190Z,6.85
2019-03-13T10:35:57.703Z,6.90
2019-03-13T10:38:42.874Z,6.93
2019-03-13T10:41:38.652Z,6.92
2019-03-13T10:44:28.321Z,7.02
2019-03-13T10:47:01.373Z,7.12
2019-03-13T10:49:54.133Z,7.23
2019-03-13T10:52:31.861Z,7.23
2019-03-13T10:55:46.297Z,7.25
2019-03-13T10:58:28.180Z,7.29
2019-03-13T11:01:03.302Z,7.52
2019-03-13T11:03:44.392Z,7.73
2019-03-13T11:06:28.844Z,7.73
2019-03-13T11:09:15.499Z,7.67
2019-03-13T11:12:02.148Z,7.63
2019-03-13T11:14:47.684Z,7.60
2019-03-13T11:17:33.229Z,7.65
2019-03-13T11:20:23.225Z,7.67
2019-03-13T11:23:15.428Z,7.75
2019-03-13T11:26:05.091Z,7.86
2019-03-13T11:28:53.773Z,7.97
2019-03-13T11:32:01.949Z,7.95
2019-03-13T11:34:42.993Z,7.95
2019-03-13T11:37:28.613Z,7.85
2019-03-13T11:40:14.193Z,7.68
2019-03-13T11:43:04.004Z,7.60
2019-03-13T11:45:47.700Z,7.54
2019-03-13T11:48:40.821Z,7.43
2019-03-13T11:51:30.341Z,7.30
2019-03-13T11:54:14.461Z,7.27
2019-03-13T11:57:13.122Z,7.34
2019-03-13T11:59:48.241Z,7.37
2019-03-13T12:02:44.170Z,7.42
2019-03-13T12:05:24.988Z,7.35
2019-03-13T12:08:04.793Z,7.34
2019-03-13T12:10:46.456Z,7.28
2019-03-13T12:13:34.214Z,7.27
2019-03-13T12:16:11.561Z,7.19
2019-03-13T12:18:44.291Z,7.21
2019-03-13T12:21:24.346Z,7.09
2019-03-13T12:24:13.788Z,7.03
2019-03-13T12:27:15.461Z,6.99
2019-03-13T12:30:05.214Z,6.93
2019-03-13T12:32:51.850Z,6.92
2019-03-13T12:35:32.115Z,6.89
2019-03-13T12:38:18.762Z,6.89
2019-03-13T12:41:11.118Z,6.95
2019-03-13T12:43:57.761Z,7.01
2019-03-13T12:46:56.487Z,7.08
2019-03-13T12:49:43.142Z,7.23
2019-03-13T12:52:35.910Z,7.39
2019-03-13T12:55:18.052Z,7.41
2019-03-13T12:58:20.000Z,7.43
2019-03-13T13:01:05.238Z,7.44
2019-03-13T13:03:55.013Z,7.45
2019-03-13T13:06:41.636Z,7.45
2019-03-13T13:09:26.964Z,7.38
2019-03-13T13:12:03.280Z,7.38
2019-03-13T13:14:55.123Z,7.47
2019-03-13T13:17:29.457Z,7.52
2019-03-13T13:19:56.503Z,7.53
2019-03-13T13:22:23.616Z,7.56
2019-03-13T13:24:50.665Z,7.57
2019-03-13T13:27:17.762Z,7.45
2019-03-13T13:29:45.053Z,7.38
2019-03-13T13:32:12.130Z,7.37
2019-03-13T13:34:39.183Z,7.27
2019-03-13T13:37:06.532Z,7.27
2019-03-13T13:39:33.587Z,7.34
2019-03-13T13:42:00.655Z,7.45
2019-03-13T13:44:28.027Z,7.53
2019-03-13T13:46:55.133Z,7.60
2019-03-13T13:49:22.176Z,7.70
2019-03-13T13:51:49.257Z,7.95
2019-03-13T13:54:16.468Z,8.05
2019-03-13T13:56:43.635Z,8.21
2019-03-13T13:59:10.719Z,8.37
2019-03-13T14:01:37.826Z,8.31
2019-03-13T14:04:04.919Z,8.21
2019-03-13T14:06:32.007Z,8.08
2019-03-13T14:08:59.112Z,7.97
2019-03-13T14:11:26.196Z,7.83
2019-03-13T14:13:53.249Z,7.73
2019-03-13T14:16:20.437Z,7.68
2019-03-13T14:18:48.939Z,7.59
2019-03-13T14:21:15.995Z,7.46
2019-03-13T14:23:43.097Z,7.40
2019-03-13T14:26:10.165Z,7.32
2019-03-13T14:28:42.793Z,7.28
2019-03-13T14:31:09.929Z,7.23
2019-03-13T14:33:36.978Z,7.12
2019-03-13T14:36:04.089Z,7.05
2019-03-13T14:38:31.164Z,7.01
2019-03-13T14:40:58.267Z,7.03
2019-03-13T14:43:25.381Z,6.96
2019-03-13T14:45:52.467Z,6.95
2019-03-13T14:48:19.648Z,6.92
2019-03-13T14:50:46.748Z,6.92
2019-03-13T14:53:19.634Z,6.96
2019-03-13T14:55:46.787Z,6.94
2019-03-13T14:58:13.912Z,6.92
2019-03-13T15:00:41.095Z,6.92
2019-03-13T15:03:08.730Z,6.89
2019-03-13T15:05:35.935Z,6.85
2019-03-13T15:08:04.213Z,6.81
2019-03-13T15:10:31.291Z,6.76
2019-03-13T15:12:58.394Z,6.63
2019-03-13T15:15:25.567Z,6.58
2019-03-13T15:17:53.392Z,6.51
2019-03-13T15:20:22.209Z,6.39
2019-03-13T15:22:49.265Z,6.33
2019-03-13T15:25:16.441Z,6.27
2019-03-13T15:27:43.538Z,6.23
2019-03-13T15:30:13.518Z,6.21
2019-03-13T15:32:42.285Z,6.20
2019-03-13T15:35:09.539Z,6.25
2019-03-13T15:37:36.752Z,6.29
2019-03-13T15:40:04.451Z,6.28
2019-03-13T15:42:31.648Z,6.19
2019-03-13T15:45:01.841Z,6.14
2019-03-13T15:47:28.946Z,6.12
2019-03-13T15:49:56.076Z,6.13
2019-03-13T15:52:23.143Z,6.08
2019-03-13T15:54:50.255Z,6.04
2019-03-13T15:57:18.527Z,6.03
2019-03-13T15:59:45.870Z,6.02
2019-03-13T16:02:13.098Z,6.06
2019-03-13T16:04:40.269Z,6.14
2019-03-13T16:07:07.299Z,6.18
2019-03-13T16:09:57.992Z,6.25
2019-03-13T16:12:25.065Z,6.37
2019-03-13T16:14:52.210Z,6.50
2019-03-13T16:17:19.257Z,6.57
2019-03-13T16:19:46.373Z,6.67
2019-03-13T16:22:14.297Z,6.78
2019-03-13T16:24:41.408Z,6.88
2019-03-13T16:27:08.483Z,6.96
2019-03-13T16:29:35.537Z,7.00
2019-03-13T16:32:02.862Z,7.04
2019-03-13T16:34:29.920Z,7.11
2019-03-13T16:37:03.608Z,7.12
2019-03-13T16:39:30.777Z,7.12
2019-03-13T16:41:57.887Z,7.08
2019-03-13T16:44:24.957Z,7.04
2019-03-13T16:46:52.126Z,7.02
2019-03-13T16:49:19.254Z,7.02
2019-03-13T16:51:46.349Z,7.01
2019-03-13T16:54:39.990Z,7.00
2019-03-13T16:57:07.045Z,6.97
2019-03-13T16:59:34.122Z,6.96
2019-03-13T17:02:01.270Z,6.97
2019-03-13T17:04:28.349Z,7.04
2019-03-13T17:06:55.512Z,6.79
2019-03-13T17:09:22.862Z,6.46
2019-03-13T17:11:49.885Z,6.36
2019-03-13T17:14:16.926Z,6.26
2019-03-13T17:16:44.039Z,6.14
2019-03-13T17:19:49.292Z,6.10
2019-03-13T17:22:16.430Z,6.12
2019-03-13T17:24:43.496Z,6.10
2019-03-13T17:27:10.624Z,5.94
2019-03-13T17:30:20.447Z,5.92
2019-03-13T17:32:47.720Z,6.03
2019-03-13T17:35:15.043Z,6.07
2019-03-13T17:37:42.551Z,6.06
2019-03-13T17:40:12.094Z,6.12
2019-03-13T17:42:39.198Z,6.19
2019-03-13T17:45:08.049Z,6.26
2019-03-13T17:47:35.143Z,6.29
2019-03-13T17:50:02.520Z,6.32
2019-03-13T17:52:29.631Z,6.33
2019-03-13T17:54:56.830Z,6.34
2019-03-13T17:57:24.054Z,6.41
2019-03-13T17:59:51.146Z,6.45
2019-03-13T18:02:18.203Z,6.50
2019-03-13T18:04:45.370Z,6.53
2019-03-13T18:07:12.512Z,6.46
2019-03-13T18:09:39.705Z,6.45
2019-03-13T18:12:49.028Z,6.42
2019-03-13T18:15:16.234Z,6.38
2019-03-13T18:17:43.497Z,6.48
2019-03-13T18:20:12.439Z,6.54
2019-03-13T18:22:40.697Z,6.58
2019-03-13T18:25:08.020Z,6.55
2019-03-13T18:27:35.217Z,6.52
2019-03-13T18:30:02.406Z,6.54
2019-03-13T18:32:41.740Z,6.60
2019-03-13T18:35:01.855Z,6.67
2019-03-13T18:37:29.063Z,6.74
2019-03-13T18:40:33.050Z,6.79
2019-03-13T18:43:03.282Z,6.79
2019-03-13T18:45:30.368Z,6.83
2019-03-13T18:47:57.615Z,6.80
2019-03-13T18:50:24.956Z,6.78
2019-03-13T18:52:52.256Z,6.76
2019-03-13T18:55:20.169Z,6.69
2019-03-13T18:57:47.258Z,6.67
2019-03-13T19:00:17.990Z,6.65
2019-03-13T19:02:45.097Z,6.59
2019-03-13T19:05:12.865Z,6.47
2019-03-13T19:07:40.034Z,6.43
2019-03-13T19:10:08.466Z,6.40
2019-03-13T19:12:36.039Z,6.42
2019-03-13T19:15:06.593Z,6.37
2019-03-13T19:17:34.821Z,6.28
2019-03-13T19:20:01.894Z,6.23
2019-03-13T19:22:29.079Z,6.23
2019-03-13T19:24:56.288Z,6.16
2019-03-13T19:27:25.771Z,6.19
2019-03-13T19:29:52.338Z,6.12
2019-03-13T19:32:19.465Z,6.05
2019-03-13T19:34:46.680Z,6.00
2019-03-13T19:37:13.809Z,5.98
2019-03-13T19:39:40.948Z,6.00
2019-03-13T19:42:08.025Z,5.95
2019-03-13T19:44:35.106Z,5.93
2019-03-13T19:47:02.223Z,5.92
2019-03-13T19:49:29.451Z,5.84
2019-03-13T19:51:56.594Z,5.87
2019-03-13T19:54:23.772Z,5.89
2019-03-13T19:56:50.891Z,5.86
2019-03-13T19:59:18.118Z,5.84
2019-03-13T20:01:49.037Z,5.86
2019-03-13T20:04:15.671Z,5.90
2019-03-13T20:06:42.737Z,5.91
2019-03-13T20:09:11.677Z,5.96
2019-03-13T20:11:38.815Z,5.94
2019-03-13T20:14:06.015Z,5.94
2019-03-13T20:16:33.139Z,5.93
2019-03-13T20:19:00.302Z,5.97
2019-03-13T20:21:27.524Z,5.99
2019-03-13T20:23:55.720Z,6.00
2019-03-13T20:26:22.905Z,6.09
2019-03-13T20:28:49.987Z,6.08
2019-03-13T20:31:21.161Z,6.06
2019-03-13T20:34:18.988Z,6.06
2019-03-13T20:36:46.425Z,6.06
2019-03-13T20:39:13.711Z,6.11
2019-03-13T20:41:40.803Z,6.05
2019-03-13T20:44:09.030Z,6.05
2019-03-13T20:46:37.563Z,6.11
2019-03-13T20:49:04.704Z,6.13
2019-03-13T20:51:31.847Z,6.09
2019-03-13T20:53:58.967Z,6.08
2019-03-13T20:56:52.054Z,6.10
2019-03-13T20:59:19.314Z,6.08
2019-03-13T21:01:46.537Z,5.97
2019-03-13T21:04:13.661Z,5.93
2019-03-13T21:06:40.710Z,5.93
2019-03-13T21:09:07.975Z,5.92
2019-03-13T21:11:35.235Z,5.91
2019-03-13T21:14:02.299Z,5.86
2019-03-13T21:16:29.377Z,5.90
2019-03-13T21:18:56.716Z,5.89
2019-03-13T21:21:23.833Z,5.88
2019-03-13T21:23:51.004Z,5.83
2019-03-13T21:26:18.251Z,5.78
2019-03-13T21:28:45.409Z,5.77
2019-03-13T21:31:12.569Z,5.81
2019-03-13T21:33:39.781Z,5.84
2019-03-13T21:36:06.871Z,5.89
2019-03-13T21:38:44.269Z,5.93
2019-03-13T21:41:50.182Z,5.90
2019-03-13T21:44:17.482Z,5.88
2019-03-13T21:46:44.778Z,5.86
2019-03-13T21:49:11.896Z,5.94
2019-03-13T21:51:38.992Z,6.01
2019-03-13T21:54:06.062Z,5.99
2019-03-13T21:56:33.157Z,6.02
2019-03-13T21:59:00.305Z,5.98
2019-03-13T22:01:27.368Z,6.06
2019-03-13T22:03:54.466Z,6.06
2019-03-13T22:06:28.522Z,6.07
2019-03-13T22:08:50.689Z,6.05
2019-03-13T22:11:17.796Z,6.00
2019-03-13T22:13:44.974Z,5.97
2019-03-13T22:16:12.044Z,5.95
2019-03-13T22:18:39.186Z,5.92
2019-03-13T22:21:06.284Z,5.91
2019-03-13T22:23:33.460Z,5.92
2019-03-13T22:26:00.537Z,5.90
2019-03-13T22:28:27.659Z,5.84
2019-03-13T22:30:54.926Z,5.79
2019-03-13T22:33:22.071Z,5.83
2019-03-13T22:35:49.228Z,5.87
2019-03-13T22:38:16.319Z,5.90
2019-03-13T22:40:43.388Z,5.89
2019-03-13T22:43:10.462Z,5.83
2019-03-13T22:45:37.576Z,5.83
2019-03-13T22:48:24.870Z,5.80
2019-03-13T22:50:52.082Z,5.79
2019-03-13T22:53:19.314Z,5.79
2019-03-13T22:55:46.365Z,5.78
2019-03-13T22:58:13.474Z,5.81
2019-03-13T23:00:56.288Z,5.79
2019-03-13T23:03:24.522Z,5.82
2019-03-13T23:05:51.561Z,5.87
2019-03-13T23:08:18.655Z,5.91
2019-03-13T23:10:46.182Z,5.96
2019-03-13T23:13:13.370Z,5.98
2019-03-13T23:15:41.913Z,6.00
2019-03-13T23:18:09.705Z,6.04
2019-03-13T23:20:36.783Z,6.06
2019-03-13T23:23:03.868Z,6.07
2019-03-13T23:25:30.984Z,6.06
2019-03-13T23:27:58.122Z,6.09
2019-03-13T23:30:25.198Z,6.10
2019-03-13T23:33:30.250Z,6.09
2019-03-13T23:35:57.334Z,6.14
2019-03-13T23:38:24.509Z,6.15
2019-03-13T23:40:51.620Z,6.17
2019-03-13T23:43:18.670Z,6.16
2019-03-13T23:45:45.845Z,6.17
2019-03-13T23:48:18.898Z,6.20
2019-03-13T23:50:46.015Z,6.20
2019-03-13T23:53:14.714Z,6.17
2019-03-13T23:55:41.808Z,6.24
2019-03-13T23:58:11.350Z,6.23
